createdAt,value
2019-04-28T00:00:02.049Z,70.39
2019-04-28T00:02:32.182Z,70.46
2019-04-28T00:05:02.583Z,70.04
2019-04-28T00:07:32.882Z,69.93
2019-04-28T00:10:04.846Z,70.05
2019-04-28T00:12:35.848Z,70.39
2019-04-28T00:15:08.470Z,70.35
2019-04-28T00:17:38.589Z,71.31
2019-04-28T00:20:12.808Z,71.26
2019-04-28T00:22:51.557Z,71.07
2019-04-28T00:25:25.147Z,71.29
2019-04-28T00:27:56.543Z,71.89
2019-04-28T00:30:26.897Z,72.28
2019-04-28T00:32:58.136Z,72.62
2019-04-28T00:35:28.414Z,73.02
2019-04-28T00:37:59.271Z,73.80
2019-04-28T00:40:31.651Z,74.34
2019-04-28T00:43:01.843Z,74.98
2019-04-28T00:45:32.022Z,75.74
2019-04-28T00:48:02.157Z,76.07
2019-04-28T00:50:33.773Z,77.39
2019-04-28T00:53:03.863Z,78.29
2019-04-28T00:55:35.025Z,78.92
2019-04-28T00:58:06.010Z,78.87
2019-04-28T01:00:37.834Z,78.98
2019-04-28T01:03:07.821Z,78.94
2019-04-28T01:05:37.727Z,78.85
2019-04-28T01:08:07.855Z,79.27
2019-04-28T01:10:37.921Z,79.43
2019-04-28T01:13:09.408Z,79.32
2019-04-28T01:15:59.390Z,79.55
2019-04-28T01:18:43.184Z,79.61
2019-04-28T01:21:14.453Z,79.97
2019-04-28T01:23:45.178Z,79.65
2019-04-28T01:26:15.351Z,79.79
2019-04-28T01:28:45.347Z,79.90
2019-04-28T01:31:36.144Z,80.01
2019-04-28T01:34:20.619Z,79.93
2019-04-28T01:36:51.671Z,79.61
2019-04-28T01:39:21.882Z,79.42
2019-04-28T01:41:53.648Z,79.39
2019-04-28T01:44:23.740Z,79.61
2019-04-28T01:46:56.875Z,79.75
2019-04-28T01:49:26.851Z,79.65
2019-04-28T01:52:01.443Z,79.55
2019-04-28T01:54:31.614Z,79.40
2019-04-28T01:57:01.664Z,79.34
2019-04-28T01:59:32.170Z,79.12
2019-04-28T02:02:02.568Z,79.29
2019-04-28T02:04:32.980Z,79.46
2019-04-28T02:07:05.930Z,79.61
2019-04-28T02:09:39.481Z,79.54
2019-04-28T02:12:11.029Z,79.56
2019-04-28T02:14:43.208Z,79.38
2019-04-28T02:17:17.089Z,79.44
2019-04-28T02:19:47.107Z,79.47
2019-04-28T02:22:30.146Z,79.83
2019-04-28T02:25:00.380Z,80.18
2019-04-28T02:27:33.471Z,80.23
2019-04-28T02:30:05.074Z,80.28
2019-04-28T02:32:35.125Z,80.18
2019-04-28T02:35:05.593Z,80.15
2019-04-28T02:37:35.456Z,80.22
2019-04-28T02:40:06.197Z,80.06
2019-04-28T02:42:37.220Z,79.38
2019-04-28T02:45:07.947Z,79.32
2019-04-28T02:47:37.918Z,79.09
2019-04-28T02:50:21.074Z,78.44
2019-04-28T02:53:08.200Z,78.60
2019-04-28T02:55:41.226Z,78.09
2019-04-28T02:58:13.386Z,78.09
2019-04-28T03:01:00.377Z,77.83
2019-04-28T03:03:14.968Z,77.83
2019-04-28T03:05:45.638Z,76.98
2019-04-28T03:08:15.796Z,77.28
2019-04-28T03:10:45.821Z,77.43
2019-04-28T03:13:20.643Z,77.30
2019-04-28T03:15:51.671Z,77.34
2019-04-28T03:18:21.663Z,76.78
2019-04-28T03:20:53.042Z,76.54
2019-04-28T03:23:23.000Z,76.51
2019-04-28T03:26:11.831Z,76.95
2019-04-28T03:28:57.121Z,77.30
2019-04-28T03:32:07.613Z,77.38
2019-04-28T03:34:13.013Z,76.90
2019-04-28T03:36:41.989Z,76.73
2019-04-28T03:39:14.058Z,77.06
2019-04-28T03:46:51.929Z,77.11
2019-04-28T03:49:34.852Z,77.17
2019-04-28T03:52:06.155Z,77.29
2019-04-28T03:54:36.259Z,76.92
2019-04-28T03:57:06.808Z,76.75
2019-04-28T03:59:41.266Z,76.59
2019-04-28T04:02:11.709Z,76.48
2019-04-28T04:04:41.897Z,76.53
2019-04-28T04:07:12.006Z,76.47
2019-04-28T04:09:51.194Z,76.99
2019-04-28T04:12:30.908Z,77.25
2019-04-28T04:15:11.248Z,77.02
2019-04-28T04:17:54.245Z,77.07
2019-04-28T04:20:26.843Z,77.08
2019-04-28T04:23:01.439Z,77.07
2019-04-28T04:25:32.065Z,76.78
2019-04-28T04:28:03.786Z,76.51
2019-04-28T04:30:33.962Z,76.46
2019-04-28T04:33:04.219Z,76.64
2019-04-28T04:35:34.227Z,76.73
2019-04-28T04:38:04.846Z,76.50
2019-04-28T04:40:34.840Z,76.47
2019-04-28T04:43:05.532Z,76.57
2019-04-28T04:45:35.641Z,76.59
2019-04-28T04:48:05.943Z,76.16
2019-04-28T04:50:36.784Z,75.98
2019-04-28T04:53:06.866Z,76.43
2019-04-28T04:55:40.570Z,76.22
2019-04-28T04:58:12.808Z,75.72
2019-04-28T05:00:53.526Z,75.68
2019-04-28T05:03:27.069Z,76.33
2019-04-28T05:06:00.112Z,76.73
2019-04-28T05:08:30.313Z,76.22
2019-04-28T05:11:00.879Z,76.32
2019-04-28T05:13:31.084Z,76.25
2019-04-28T05:16:01.166Z,76.28
2019-04-28T05:18:31.443Z,76.13
2019-04-28T05:21:01.440Z,75.83
2019-04-28T05:23:41.354Z,75.72
2019-04-28T05:26:11.527Z,75.97
2019-04-28T05:28:50.425Z,76.21
2019-04-28T05:31:22.922Z,76.09
2019-04-28T05:33:45.872Z,76.07
2019-04-28T05:36:16.060Z,75.62
2019-04-28T05:38:46.086Z,75.54
2019-04-28T05:41:16.295Z,75.19
2019-04-28T05:43:46.299Z,75.01
2019-04-28T05:46:16.336Z,75.29
2019-04-28T05:48:57.247Z,75.70
2019-04-28T05:51:30.052Z,75.58
2019-04-28T05:54:09.846Z,75.47
2019-04-28T05:56:45.272Z,75.41
2019-04-28T05:59:21.325Z,75.49
2019-04-28T06:02:05.555Z,75.54
2019-04-28T06:04:37.202Z,75.47
2019-04-28T06:07:30.487Z,75.53
2019-04-28T06:10:00.473Z,75.74
2019-04-28T06:12:31.970Z,75.59
2019-04-28T06:15:02.807Z,75.57
2019-04-28T06:17:32.887Z,75.50
2019-04-28T06:20:04.983Z,75.14
2019-04-28T06:22:36.392Z,75.22
2019-04-28T06:25:08.150Z,75.21
2019-04-28T06:27:38.070Z,75.33
2019-04-28T06:30:08.933Z,75.52
2019-04-28T06:32:40.064Z,75.27
2019-04-28T06:35:11.399Z,75.46
2019-04-28T06:37:41.931Z,75.22
2019-04-28T06:40:12.260Z,75.04
2019-04-28T06:42:42.333Z,74.50
2019-04-28T06:45:15.275Z,74.56
2019-04-28T06:47:45.610Z,74.38
2019-04-28T06:50:19.729Z,74.13
2019-04-28T06:52:49.809Z,73.94
2019-04-28T06:55:19.781Z,73.07
2019-04-28T06:57:49.773Z,72.59
2019-04-28T07:00:23.524Z,71.60
2019-04-28T07:02:55.264Z,71.62
2019-04-28T07:05:26.673Z,71.56
2019-04-28T07:07:59.637Z,70.65
2019-04-28T07:10:29.739Z,69.77
2019-04-28T07:12:59.647Z,68.75
2019-04-28T07:15:29.829Z,68.64
2019-04-28T07:18:00.000Z,68.37
2019-04-28T07:20:47.723Z,67.94
2019-04-28T07:23:18.353Z,67.01
2019-04-28T07:25:49.154Z,66.89
2019-04-28T07:28:21.166Z,66.93
2019-04-28T07:30:51.662Z,65.91
2019-04-28T07:33:21.680Z,65.74
2019-04-28T07:35:52.459Z,65.42
2019-04-28T07:38:22.735Z,64.86
2019-04-28T07:40:55.704Z,65.49
2019-04-28T07:43:31.406Z,64.58
2019-04-28T07:46:03.946Z,64.02
2019-04-28T07:48:35.075Z,63.33
2019-04-28T07:52:22.659Z,62.15
2019-04-28T07:54:53.103Z,61.19
2019-04-28T07:57:25.650Z,61.04
2019-04-28T07:59:55.756Z,60.67
2019-04-28T08:02:26.806Z,59.94
2019-04-28T08:04:57.382Z,59.54
2019-04-28T08:07:28.699Z,58.01
2019-04-28T08:09:59.481Z,58.69
2019-04-28T08:12:30.387Z,57.75
2019-04-28T08:15:00.889Z,58.01
2019-04-28T08:17:36.239Z,56.28
2019-04-28T08:20:08.716Z,57.26
2019-04-28T08:22:43.901Z,58.19
2019-04-28T08:25:16.572Z,59.46
2019-04-28T08:27:47.696Z,56.81
2019-04-28T08:30:18.238Z,57.31
2019-04-28T08:32:58.509Z,55.71
2019-04-28T08:35:29.422Z,55.06
2019-04-28T08:38:00.374Z,55.60
2019-04-28T08:40:31.078Z,55.58
2019-04-28T08:43:12.834Z,55.17
2019-04-28T08:45:45.505Z,54.25
2019-04-28T08:48:20.223Z,53.90
2019-04-28T08:50:54.751Z,55.14
2019-04-28T08:53:25.661Z,54.23
2019-04-28T08:55:58.873Z,53.73
2019-04-28T08:58:30.120Z,53.30
2019-04-28T09:01:03.115Z,51.27
2019-04-28T09:03:35.332Z,50.71
2019-04-28T09:06:07.146Z,51.06
2019-04-28T09:08:38.765Z,50.81
2019-04-28T09:11:15.400Z,51.37
2019-04-28T09:13:49.375Z,50.14
2019-04-28T09:16:20.658Z,49.43
2019-04-28T09:18:51.560Z,50.75
2019-04-28T09:21:26.562Z,50.15
2019-04-28T09:23:58.521Z,48.24
2019-04-28T09:26:29.031Z,47.23
2019-04-28T09:28:59.737Z,47.99
2019-04-28T09:31:31.477Z,48.10
2019-04-28T09:34:02.598Z,46.67
2019-04-28T09:36:40.763Z,47.44
2019-04-28T09:39:15.975Z,47.81
2019-04-28T09:42:08.345Z,47.96
2019-04-28T09:44:38.752Z,47.18
2019-04-28T09:47:09.936Z,46.43
2019-04-28T09:49:44.582Z,47.05
2019-04-28T09:52:15.259Z,46.12
2019-04-28T09:54:48.529Z,46.44
2019-04-28T09:57:20.560Z,46.22
2019-04-28T09:59:51.477Z,46.58
2019-04-28T10:02:22.820Z,46.93
2019-04-28T10:04:55.892Z,45.92
2019-04-28T10:07:26.860Z,44.68
2019-04-28T10:09:57.450Z,44.45
2019-04-28T10:12:28.197Z,43.43
2019-04-28T10:15:01.371Z,42.92
2019-04-28T10:17:32.020Z,43.63
2019-04-28T10:22:34.834Z,43.17
2019-04-28T10:25:10.663Z,43.62
2019-04-28T10:27:44.426Z,45.20
2019-04-28T10:30:24.422Z,45.70
2019-04-28T10:32:57.843Z,45.82
2019-04-28T10:35:29.882Z,45.66
2019-04-28T10:38:04.192Z,45.13
2019-04-28T10:40:51.591Z,44.78
2019-04-28T10:43:24.010Z,45.24
2019-04-28T10:45:58.173Z,46.05
2019-04-28T10:48:29.965Z,45.39
2019-04-28T10:51:02.911Z,44.71
2019-04-28T10:53:33.828Z,44.70
2019-04-28T10:56:06.318Z,44.83
2019-04-28T10:58:39.424Z,45.13
2019-04-28T11:01:13.138Z,43.47
2019-04-28T11:03:45.553Z,43.49
2019-04-28T11:06:18.140Z,43.49
2019-04-28T11:09:05.562Z,43.57
2019-04-28T11:11:39.711Z,44.22
2019-04-28T11:14:10.633Z,43.20
2019-04-28T11:16:43.476Z,42.57
2019-04-28T11:19:14.270Z,42.46
2019-04-28T11:21:45.072Z,42.01
2019-04-28T11:24:19.504Z,40.51
2019-04-28T11:26:52.540Z,40.26
2019-04-28T11:29:25.521Z,39.13
2019-04-28T11:32:11.259Z,37.90
2019-04-28T11:35:03.635Z,36.52
2019-04-28T11:37:34.402Z,37.00
2019-04-28T11:40:09.965Z,36.73
2019-04-28T11:42:41.519Z,36.79
2019-04-28T11:45:18.797Z,36.44
2019-04-28T11:47:51.732Z,37.14
2019-04-28T11:50:39.296Z,37.89
2019-04-28T11:53:12.663Z,38.74
2019-04-28T11:55:43.852Z,39.86
2019-04-28T11:58:19.474Z,38.84
2019-04-28T12:00:56.698Z,38.94
2019-04-28T12:03:32.874Z,39.27
2019-04-28T12:06:07.016Z,39.32
2019-04-28T12:08:37.299Z,38.33
2019-04-28T12:11:38.697Z,37.88
2019-04-28T12:14:26.003Z,36.55
2019-04-28T12:17:14.635Z,36.96
2019-04-28T12:20:07.030Z,36.96
2019-04-28T12:22:37.547Z,38.64
2019-04-28T12:25:08.473Z,39.99
2019-04-28T12:27:39.289Z,38.75
2019-04-28T12:30:09.886Z,38.30
2019-04-28T12:32:39.976Z,38.12
2019-04-28T12:35:10.842Z,36.52
2019-04-28T12:37:41.252Z,37.65
2019-04-28T12:40:14.000Z,42.56
2019-04-28T12:42:44.984Z,44.33
2019-04-28T12:45:16.846Z,44.92
2019-04-28T12:47:46.898Z,44.85
2019-04-28T12:50:26.676Z,45.12
2019-04-28T12:52:56.859Z,45.58
2019-04-28T12:55:29.531Z,45.44
2019-04-28T12:57:59.942Z,45.55
2019-04-28T13:03:39.884Z,45.14
2019-04-28T13:06:13.125Z,44.66
2019-04-28T13:08:49.223Z,45.10
2019-04-28T13:11:20.217Z,45.07
2019-04-28T13:13:53.664Z,45.16
2019-04-28T13:16:23.833Z,44.93
2019-04-28T13:18:53.973Z,44.67
2019-04-28T13:21:24.410Z,44.20
2019-04-28T13:23:57.487Z,43.97
2019-04-28T13:26:28.186Z,44.18
2019-04-28T13:28:58.174Z,43.22
2019-04-28T13:31:28.154Z,42.81
2019-04-28T13:34:00.154Z,43.27
2019-04-28T13:36:33.103Z,43.07
2019-04-28T13:39:05.220Z,42.44
2019-04-28T13:41:37.385Z,42.19
2019-04-28T13:44:12.653Z,41.79
2019-04-28T13:46:42.896Z,41.28
2019-04-28T13:49:16.922Z,40.90
2019-04-28T13:51:47.921Z,40.81
2019-04-28T13:54:22.588Z,40.91
2019-04-28T13:56:57.503Z,40.65
2019-04-28T13:59:28.465Z,39.31
2019-04-28T14:02:23.006Z,39.67
2019-04-28T14:07:48.498Z,38.21
2019-04-28T14:10:21.391Z,37.76
2019-04-28T14:12:52.616Z,38.18
2019-04-28T14:15:23.102Z,38.22
2019-04-28T14:17:53.654Z,37.72
2019-04-28T14:20:24.655Z,37.73
2019-04-28T14:22:55.922Z,38.78
2019-04-28T14:25:26.787Z,39.34
2019-04-28T14:27:57.287Z,40.13
2019-04-28T14:30:27.323Z,39.65
2019-04-28T14:32:58.030Z,39.49
2019-04-28T14:35:28.134Z,39.56
2019-04-28T14:37:58.830Z,38.99
2019-04-28T14:40:29.203Z,38.89
2019-04-28T14:43:04.367Z,38.57
2019-04-28T14:45:35.523Z,38.29
2019-04-28T14:48:06.114Z,38.63
